TimeCDT,TemperatureF,Dew PointF,Humidity,Sea Level PressureIn,VisibilityMPH,Wind Direction,Wind SpeedMPH,Gust SpeedMPH,PrecipitationIn,Events,Conditions,WindDirDegrees,DateUTC
12:34 AM,60.8,55.4,82,30.01,10.0,SE,13.8,-,N/A,,Overcast,140,2013-03-10 06:34:00
12:53 AM,61.0,55.9,83,30.01,9.0,SE,12.7,-,N/A,,Overcast,140,2013-03-10 06:53:00
1:53 AM,61.0,55.9,83,30.00,10.0,SE,8.1,-,N/A,,Overcast,130,2013-03-10 07:53:00
3:53 AM,60.1,55.9,86,29.99,9.0,SE,4.6,-,N/A,,Overcast,130,2013-03-10 08:53:00
4:11 AM,59.0,55.4,88,29.99,9.0,ESE,5.8,-,N/A,,Mostly Cloudy,120,2013-03-10 09:11:00
4:24 AM,59.0,55.4,88,29.98,9.0,East,4.6,-,N/A,,Mostly Cloudy,100,2013-03-10 09:24:00
4:51 AM,59.0,55.4,88,29.99,8.0,Calm,Calm,-,N/A,,Overcast,0,2013-03-10 09:51:00
4:53 AM,57.9,55.9,93,29.98,8.0,Calm,Calm,-,N/A,,Overcast,0,2013-03-10 09:53:00
5:53 AM,57.9,55.9,93,29.99,6.0,Calm,Calm,-,N/A,,Overcast,0,2013-03-10 10:53:00
6:24 AM,57.2,55.4,94,29.99,5.0,ENE,3.5,-,N/A,,Overcast,70,2013-03-10 11:24:00
7:34 AM,57.2,55.4,94,29.99,5.0,East,8.1,-,N/A,,Overcast,100,2013-03-10 12:34:00
7:53 AM,57.9,55.9,93,29.99,5.0,ESE,6.9,-,N/A,,Overcast,110,2013-03-10 12:53:00
8:07 AM,57.2,55.4,94,29.99,5.0,SE,5.8,-,N/A,,Overcast,130,2013-03-10 13:07:00
8:53 AM,61.0,57.0,87,29.97,7.0,ESE,8.1,-,N/A,,Overcast,120,2013-03-10 13:53:00
9:10 AM,62.6,57.2,82,29.98,9.0,SE,6.9,-,N/A,,Mostly Cloudy,130,2013-03-10 14:10:00
9:53 AM,68.0,57.9,70,29.98,10.0,SE,16.1,24.2,N/A,,Mostly Cloudy,140,2013-03-10 14:53:00
10:38 AM,69.8,59.0,68,30.00,10.0,SSE,10.4,-,N/A,,Overcast,150,2013-03-10 15:38:00
10:48 AM,69.8,59.0,68,30.00,10.0,SSE,11.5,20.7,N/A,,Overcast,160,2013-03-10 15:48:00
10:53 AM,70.0,59.0,68,29.99,10.0,SSE,16.1,23.0,N/A,,Overcast,160,2013-03-10 15:53:00
11:00 AM,71.6,59.0,64,30.01,10.0,South,16.1,23.0,N/A,,Overcast,170,2013-03-10 16:00:00
11:53 AM,75.0,57.0,53,30.00,10.0,South,24.2,32.2,N/A,,Mostly Cloudy,170,2013-03-10 16:53:00
12:53 PM,73.9,55.0,52,29.99,10.0,South,20.7,31.1,N/A,,Overcast,180,2013-03-10 17:53:00
1:53 PM,75.9,57.0,52,29.97,10.0,SSE,21.9,28.8,N/A,,Mostly Cloudy,160,2013-03-10 18:53:00
2:53 PM,75.0,57.0,53,29.93,10.0,South,21.9,34.5,N/A,,Mostly Cloudy,170,2013-03-10 19:53:00
3:53 PM,75.0,57.9,55,29.92,10.0,South,20.7,34.5,N/A,,Overcast,170,2013-03-10 20:53:00
4:53 PM,73.0,59.0,61,29.90,10.0,South,16.1,28.8,N/A,,Overcast,170,2013-03-10 21:53:00
5:53 PM,73.9,60.1,62,29.90,10.0,SSE,13.8,-,N/A,,Mostly Cloudy,160,2013-03-10 22:53:00
6:53 PM,71.1,60.1,68,29.90,10.0,SSE,19.6,26.5,N/A,,Overcast,150,2013-03-10 23:53:00
7:11 PM,69.8,60.8,73,29.90,10.0,SSE,17.3,23.0,0.00,Rain,Light Rain,160,2013-03-11 00:11:00
7:32 PM,68.0,62.6,83,29.91,5.0,South,10.4,21.9,0.03,Rain,Heavy Rain,180,2013-03-11 00:32:00
7:39 PM,66.2,62.6,88,29.91,9.0,South,10.4,-,0.03,Rain,Light Rain,170,2013-03-11 00:39:00
7:49 PM,68.0,60.8,78,29.90,10.0,SSE,19.6,26.5,0.03,,Overcast,150,2013-03-11 00:49:00
7:53 PM,68.0,61.0,78,29.90,10.0,SSE,17.3,27.6,0.03,,Overcast,160,2013-03-11 00:53:00
8:36 PM,66.2,60.8,83,29.90,10.0,SSE,18.4,23.0,0.00,,Overcast,150,2013-03-11 01:36:00
8:53 PM,66.9,61.0,81,29.91,10.0,SSE,16.1,25.3,0.00,,Overcast,150,2013-03-11 01:53:00
9:53 PM,66.9,61.0,81,29.92,10.0,SSE,17.3,24.2,N/A,,Overcast,150,2013-03-11 02:53:00
10:53 PM,66.0,62.1,87,29.91,10.0,SSE,12.7,-,0.01,,Overcast,150,2013-03-11 03:53:00
11:53 PM,64.9,62.1,90,29.91,3.0,South,8.1,-,0.06,Rain,Light Rain,190,2013-03-11 04:53:00
12:46 AM,64.4,62.6,94,29.90,5.0,SE,9.2,-,0.10,Rain,Light Rain,140,2013-03-11 05:46:00
12:53 AM,64.0,63.0,96,29.88,5.0,SE,9.2,-,0.11,Rain,Light Rain,140,2013-03-11 05:53:00